Time;durP1;ratioP1;P1;durP2;ratioP2;P2;SDS_P1;SDS_P2;PMS_P1;PMS_P2;Temp;Humidity;BMP_temperature;BMP_pressure;BME280_temperature;BME280_humidity;BME280_pressure;Samples;Min_cycle;Max_cycle;Signal;HPM_P1;HPM_P2
2023/07/27 00:02:23;;;;;;;3.92;2.50;;;;;;;16.33;50.49;99979.59;20463786;28;20328;-84
2023/07/27 00:12:25;;;;;;;3.88;2.47;;;;;;;16.29;51.24;99968.16;20496601;28;20500;-88
2023/07/27 00:22:28;;;;;;;5.93;2.33;;;;;;;16.21;50.76;99949.34;20461626;28;20215;-87
2023/07/27 00:32:31;;;;;;;3.35;2.17;;;;;;;16.23;50.75;99943.31;20443670;29;20238;-87
2023/07/27 00:42:35;;;;;;;3.03;2.13;;;;;;;16.47;49.95;99932.38;20438752;29;20215;-88
2023/07/27 00:52:37;;;;;;;3.70;1.80;;;;;;;16.76;49.30;99918.69;20456945;28;20280;-85
2023/07/27 01:02:40;;;;;;;6.10;2.03;;;;;;;16.37;50.00;99900.97;20457430;28;20219;-84
2023/07/27 01:12:55;;;;;;;2.83;2.15;;;;;;;16.84;48.43;99887.16;20489875;28;20202;-85
2023/07/27 01:23:12;;;;;;;3.35;1.77;;;;;;;16.49;49.59;99884.56;20437093;28;20232;-86
2023/07/27 01:33:19;;;;;;;1.60;1.50;;;;;;;15.94;50.75;99870.97;20437510;29;20203;-85
2023/07/27 01:43:24;;;;;;;2.50;1.77;;;;;;;16.02;49.70;99856.53;20441451;28;20227;-86
2023/07/27 01:53:28;;;;;;;3.33;1.58;;;;;;;16.21;49.50;99832.94;20420232;28;20270;-86
2023/07/27 02:03:30;;;;;;;2.05;1.70;;;;;;;16.26;48.86;99838.28;20426955;29;20218;-85
2023/07/27 02:13:46;;;;;;;3.33;1.88;;;;;;;16.33;49.05;99835.59;20440416;28;20274;-84
2023/07/27 02:23:49;;;;;;;2.08;1.52;;;;;;;16.42;48.93;99824.78;20492414;28;20230;-84
2023/07/27 02:33:52;;;;;;;3.22;1.63;;;;;;;15.96;50.05;99840.19;20473088;28;20204;-87
2023/07/27 02:43:55;;;;;;;3.28;1.83;;;;;;;16.21;50.97;99832.94;20399881;29;20434;-85
2023/07/27 02:54:01;;;;;;;3.50;2.17;;;;;;;16.89;51.25;99832.00;20426545;29;20231;-84
2023/07/27 03:04:07;;;;;;;4.32;2.30;;;;;;;16.48;52.84;99845.97;20441819;28;20215;-87
2023/07/27 03:14:10;;;;;;;2.33;2.13;;;;;;;16.23;54.58;99838.25;20455426;28;20324;-86
2023/07/27 03:24:16;;;;;;;3.63;2.03;;;;;;;16.21;55.67;99838.63;20449316;28;20219;-86
2023/07/27 03:34:18;;;;;;;4.38;2.35;;;;;;;16.30;58.33;99827.81;20455884;29;20191;-85
2023/07/27 03:44:22;;;;;;;2.55;2.30;;;;;;;15.72;61.70;99812.97;20494569;29;20219;-85
2023/07/27 03:54:25;;;;;;;4.90;2.40;;;;;;;15.71;63.25;99811.34;20464878;28;20274;-85
2023/07/27 04:04:27;;;;;;;7.60;3.00;;;;;;;15.36;66.02;99800.94;20480673;29;20705;-85
2023/07/27 04:14:30;;;;;;;6.32;2.83;;;;;;;15.47;65.69;99789.78;20463701;29;20259;-84
2023/07/27 04:24:33;;;;;;;4.10;2.60;;;;;;;14.92;68.73;99772.06;20432114;29;20697;-84
2023/07/27 04:34:35;;;;;;;4.03;3.13;;;;;;;14.94;67.24;99754.69;20490493;28;20195;-81
2023/07/27 04:44:38;;;;;;;4.25;3.22;;;;;;;14.78;67.80;99751.91;20433004;28;20687;-81
2023/07/27 04:54:40;;;;;;;4.60;3.35;;;;;;;14.98;68.36;99749.91;20449683;29;20324;-83
2023/07/27 05:04:43;;;;;;;6.37;3.43;;;;;;;14.16;70.50;99716.91;20490774;28;20569;-82
2023/07/27 05:14:46;;;;;;;6.57;3.60;;;;;;;14.73;69.53;99732.38;20457745;29;20243;-82
2023/07/27 05:24:48;;;;;;;6.53;3.50;;;;;;;14.30;70.73;99693.78;20476551;28;20227;-80
2023/07/27 05:34:51;;;;;;;5.13;3.42;;;;;;;14.41;69.71;99677.06;20459170;28;20199;-80
2023/07/27 05:44:53;;;;;;;3.95;3.00;;;;;;;13.84;73.16;99651.09;20463686;28;20223;-82
2023/07/27 05:54:56;;;;;;;5.20;2.93;;;;;;;13.78;73.44;99617.78;20474927;28;20240;-83
2023/07/27 06:04:59;;;;;;;6.23;3.03;;;;;;;13.91;74.07;99589.03;20461719;28;20219;-80
2023/07/27 06:15:02;;;;;;;4.53;2.77;;;;;;;14.03;72.90;99576.78;20467902;29;20203;-80
2023/07/27 06:25:05;;;;;;;4.07;2.63;;;;;;;13.98;74.28;99565.75;20465426;28;20234;-81
2023/07/27 06:35:08;;;;;;;3.42;2.42;;;;;;;14.78;71.21;99545.16;20452946;28;20604;-80
2023/07/27 06:45:10;;;;;;;3.30;1.67;;;;;;;14.39;73.66;99533.91;20472388;28;20293;-81
2023/07/27 06:55:13;;;;;;;2.53;1.88;;;;;;;14.48;74.34;99539.31;20453183;28;20278;-80
2023/07/27 07:05:16;;;;;;;1.80;1.43;;;;;;;14.59;74.34;99540.34;20483637;28;20698;-83
2023/07/27 07:15:18;;;;;;;5.47;3.73;;;;;;;14.81;73.29;99513.22;20498144;28;20203;-83
2023/07/27 07:25:21;;;;;;;1.70;1.17;;;;;;;14.64;75.09;99510.91;20469929;28;20275;-85
2023/07/27 07:35:24;;;;;;;1.20;0.93;;;;;;;14.63;75.85;99501.59;20454555;28;20259;-86
2023/07/27 07:45:27;;;;;;;0.85;0.85;;;;;;;15.33;74.70;99477.72;20477461;28;20224;-85
2023/07/27 07:55:33;;;;;;;2.22;1.05;;;;;;;14.93;76.54;99473.41;20460832;28;20278;-84
2023/07/27 08:05:40;;;;;;;0.60;0.60;;;;;;;15.03;75.59;99469.94;20453406;28;20219;-83
2023/07/27 08:15:51;;;;;;;1.33;0.75;;;;;;;15.10;75.52;99458.72;20450579;28;20236;-83
2023/07/27 08:25:57;;;;;;;1.33;0.60;;;;;;;15.63;74.66;99463.53;20442046;28;20241;-84
2023/07/27 08:36:00;;;;;;;0.80;0.80;;;;;;;16.35;73.08;99455.53;20473360;28;20274;-84
2023/07/27 08:46:05;;;;;;;0.73;0.40;;;;;;;15.64;76.02;99442.47;20487419;29;20612;-84
2023/07/27 08:56:07;;;;;;;0.80;0.67;;;;;;;16.13;75.53;99437.44;20464505;28;20239;-83
2023/07/27 09:06:10;;;;;;;0.65;0.45;;;;;;;15.83;75.56;99438.72;20466418;29;20497;-84
2023/07/27 09:16:12;;;;;;;0.82;0.57;;;;;;;16.51;73.51;99433.41;20470770;28;20231;-82
2023/07/27 09:26:24;;;;;;;0.47;0.47;;;;;;;16.31;75.71;99437.66;20483106;28;20227;-84
2023/07/27 09:36:26;;;;;;;0.50;0.47;;;;;;;15.80;77.27;99438.28;20465948;29;20191;-82
2023/07/27 09:46:30;;;;;;;0.90;0.43;;;;;;;16.04;76.51;99427.59;20467355;28;20263;-83
2023/07/27 09:56:34;;;;;;;0.90;0.52;;;;;;;17.05;70.86;99431.00;20478765;28;20726;-83
2023/07/27 10:06:36;;;;;;;0.52;0.40;;;;;;;16.30;74.91;99430.34;20492008;29;20301;-81
2023/07/27 10:16:39;;;;;;;1.48;0.63;;;;;;;16.16;76.76;99421.66;20444986;29;20803;-83
2023/07/27 10:26:51;;;;;;;1.23;0.32;;;;;;;17.25;73.46;99418.22;20482983;29;20637;-82
2023/07/27 10:36:58;;;;;;;0.30;0.30;;;;;;;16.74;75.08;99421.88;20457378;28;20536;-82
2023/07/27 10:47:01;;;;;;;0.22;0.22;;;;;;;16.99;74.78;99422.06;20450548;28;20774;-83
2023/07/27 10:57:06;;;;;;;0.25;0.25;;;;;;;17.48;73.17;99409.41;20478425;29;20234;-84
2023/07/27 11:07:11;;;;;;;1.90;0.30;;;;;;;17.36;74.44;99406.88;20444952;28;20322;-84
2023/07/27 11:17:14;;;;;;;0.70;0.70;;;;;;;17.18;75.24;99401.88;20472680;29;20247;-83
2023/07/27 11:27:18;;;;;;;1.45;0.80;;;;;;;17.13;77.32;99390.91;20472061;29;20278;-84
2023/07/27 11:37:20;;;;;;;1.70;0.90;;;;;;;17.59;74.92;99384.66;20458961;28;20254;-83
2023/07/27 11:47:24;;;;;;;1.60;1.45;;;;;;;17.52;76.33;99382.59;20465961;28;20686;-83
2023/07/27 11:57:30;;;;;;;2.22;2.13;;;;;;;16.93;76.52;99383.84;20441231;29;20230;-83
2023/07/27 12:07:34;;;;;;;3.10;2.90;;;;;;;17.68;76.94;99385.09;20487982;28;20608;-83
2023/07/27 12:17:39;;;;;;;2.63;2.53;;;;;;;17.26;78.57;99379.22;20466917;28;20199;-83
2023/07/27 12:27:42;;;;;;;2.95;2.17;;;;;;;17.17;77.69;99385.22;20488918;28;20277;-84
2023/07/27 12:37:45;;;;;;;1.40;1.30;;;;;;;17.23;77.99;99385.69;20485861;28;20258;-82
2023/07/27 12:47:51;;;;;;;1.10;0.80;;;;;;;17.24;78.05;99376.78;20467262;28;20263;-82
2023/07/27 12:57:54;;;;;;;1.98;0.82;;;;;;;17.84;77.18;99382.72;20474437;28;20231;-81
2023/07/27 13:07:56;;;;;;;2.85;0.85;;;;;;;18.59;74.91;99358.06;20457048;28;20282;-82
2023/07/27 13:18:03;;;;;;;0.38;0.38;;;;;;;17.44;77.29;99378.09;20460184;28;20200;-81
2023/07/27 13:28:05;;;;;;;0.88;0.60;;;;;;;17.69;77.17;99375.34;20439356;28;20278;-81
2023/07/27 13:38:08;;;;;;;1.70;0.60;;;;;;;17.64;77.39;99384.28;20466560;28;20254;-83
2023/07/27 13:48:11;;;;;;;1.38;0.63;;;;;;;17.39;77.97;99386.19;20457849;28;20235;-80
2023/07/27 13:58:19;;;;;;;0.43;0.28;;;;;;;17.32;78.35;99394.66;20492029;28;20706;-83
2023/07/27 14:08:21;;;;;;;1.40;0.40;;;;;;;17.64;77.17;99395.66;20491639;28;20218;-82
2023/07/27 14:18:25;;;;;;;0.50;0.50;;;;;;;18.24;75.11;99386.50;20479150;28;20207;-85
2023/07/27 14:28:27;;;;;;;2.25;0.50;;;;;;;18.17;75.54;99389.38;20474526;28;20231;-84
2023/07/27 14:38:30;;;;;;;3.22;0.70;;;;;;;17.91;77.32;99391.28;20491252;28;20247;-84
2023/07/27 14:48:33;;;;;;;0.40;0.40;;;;;;;18.28;74.92;99391.00;20496688;28;20902;-85
2023/07/27 14:58:39;;;;;;;3.08;0.88;;;;;;;18.63;73.29;99383.72;20452493;28;20524;-85
2023/07/27 15:08:51;;;;;;;1.38;1.00;;;;;;;18.55;73.81;99382.91;20458261;28;20219;-81
2023/07/27 15:18:54;;;;;;;1.08;0.63;;;;;;;18.32;75.94;99379.59;20470528;28;20203;-84
2023/07/27 15:28:57;;;;;;;1.20;0.70;;;;;;;18.33;75.73;99378.38;20467077;28;20231;-85
2023/07/27 15:39:00;;;;;;;0.40;0.30;;;;;;;18.60;74.77;99367.41;20522460;28;20215;-85
2023/07/27 15:49:03;;;;;;;0.50;0.30;;;;;;;18.28;75.39;99390.19;20513614;28;20235;-84
2023/07/27 15:59:05;;;;;;;1.38;0.15;;;;;;;19.15;71.84;99382.06;20547626;28;20228;-83
2023/07/27 16:09:08;;;;;;;0.28;0.22;;;;;;;17.64;78.67;99392.00;20520482;28;20219;-85
2023/07/27 16:19:12;;;;;;;2.25;0.52;;;;;;;17.04;80.74;99392.44;20480856;28;20254;-83
2023/07/27 16:29:14;;;;;;;0.32;0.30;;;;;;;17.81;77.52;99394.91;20489427;28;20207;-86
2023/07/27 16:39:17;;;;;;;0.77;0.40;;;;;;;17.12;79.22;99409.16;20504179;28;20735;-85
2023/07/27 16:49:20;;;;;;;1.00;0.45;;;;;;;17.65;77.27;99405.84;20507600;28;20219;-81
2023/07/27 16:59:25;;;;;;;4.22;3.03;;;;;;;17.20;78.56;99413.66;20462489;28;20235;-86
2023/07/27 17:09:28;;;;;;;1.60;0.93;;;;;;;16.91;79.45;99414.66;20462694;28;20235;-83
2023/07/27 17:19:31;;;;;;;1.90;0.90;;;;;;;17.85;76.57;99406.31;20451265;28;20204;-86
2023/07/27 17:29:35;;;;;;;1.80;0.80;;;;;;;17.58;77.12;99402.94;20462226;28;20619;-85
2023/07/27 17:39:37;;;;;;;3.00;0.50;;;;;;;17.55;76.08;99415.91;20454347;28;20270;-83
2023/07/27 17:49:40;;;;;;;1.23;0.70;;;;;;;17.97;74.48;99408.81;20483553;28;20246;-84
2023/07/27 17:59:43;;;;;;;1.00;1.00;;;;;;;18.00;74.04;99429.97;20459991;28;20496;-85
2023/07/27 18:09:47;;;;;;;0.82;0.70;;;;;;;17.41;76.34;99409.34;20470743;28;20262;-83
2023/07/27 18:19:49;;;;;;;0.70;0.70;;;;;;;17.42;75.80;99428.03;20452711;28;20226;-85
2023/07/27 18:29:53;;;;;;;0.63;0.63;;;;;;;18.32;73.17;99416.63;20441822;28;20258;-86
2023/07/27 18:39:56;;;;;;;0.40;0.40;;;;;;;17.43;77.13;99412.59;20464551;28;20195;-83
2023/07/27 18:49:58;;;;;;;1.30;0.32;;;;;;;18.32;72.77;99419.47;20449886;28;20227;-82
2023/07/27 19:00:02;;;;;;;0.65;0.40;;;;;;;18.17;74.84;99426.38;20451943;28;20199;-83
2023/07/27 19:10:05;;;;;;;1.58;0.40;;;;;;;17.66;76.00;99427.38;20463059;28;20218;-81
2023/07/27 19:20:08;;;;;;;1.00;1.00;;;;;;;17.16;77.22;99427.03;20460022;28;20222;-83
2023/07/27 19:30:15;;;;;;;0.80;0.70;;;;;;;17.63;75.31;99445.25;20453840;28;20254;-84
2023/07/27 19:40:19;;;;;;;2.93;0.77;;;;;;;17.79;75.03;99442.88;20446478;28;20323;-84
2023/07/27 19:50:25;;;;;;;0.63;0.52;;;;;;;17.73;75.38;99455.84;20440373;28;20285;-81
2023/07/27 20:00:27;;;;;;;0.80;0.70;;;;;;;17.33;77.59;99458.88;20446493;28;20199;-82
2023/07/27 20:10:31;;;;;;;1.92;1.83;;;;;;;18.04;74.46;99467.81;20478137;28;20691;-85
2023/07/27 20:20:37;;;;;;;0.93;0.80;;;;;;;17.14;78.15;99459.94;20453255;28;20274;-84
2023/07/27 20:30:40;;;;;;;1.55;0.70;;;;;;;17.46;75.80;99448.78;20484676;28;20633;-84
2023/07/27 20:40:43;;;;;;;1.50;0.85;;;;;;;17.74;74.90;99448.94;20470502;28;20254;-82
2023/07/27 20:50:46;;;;;;;0.82;0.82;;;;;;;17.48;76.59;99449.22;20498492;28;20231;-85
2023/07/27 21:00:57;;;;;;;0.88;0.85;;;;;;;17.50;76.26;99450.47;20477533;28;20271;-88
2023/07/27 21:11:01;;;;;;;1.65;1.08;;;;;;;16.89;78.27;99467.44;20498810;28;20269;-86
2023/07/27 21:21:13;;;;;;;2.47;1.05;;;;;;;17.21;77.55;99459.97;20485789;28;20207;-86
2023/07/27 21:31:16;;;;;;;0.70;0.70;;;;;;;17.78;74.84;99446.13;20477574;28;20709;-84
2023/07/27 21:41:18;;;;;;;1.77;0.98;;;;;;;17.23;76.72;99448.25;20489822;28;20253;-87
2023/07/27 21:51:21;;;;;;;2.23;1.93;;;;;;;16.72;78.77;99435.63;20474184;28;20226;-85
2023/07/27 22:01:25;;;;;;;7.53;1.80;;;;;;;17.04;77.78;99429.38;20481170;28;20262;-83
2023/07/27 22:11:28;;;;;;;1.92;1.30;;;;;;;17.42;76.23;99434.53;20469808;28;20281;-82
2023/07/27 22:21:30;;;;;;;1.05;1.00;;;;;;;16.88;77.59;99432.53;20467001;28;20199;-82
2023/07/27 22:31:33;;;;;;;1.80;1.17;;;;;;;17.69;75.01;99423.72;20504327;28;20545;-81
2023/07/27 22:41:36;;;;;;;1.17;1.00;;;;;;;17.80;73.91;99424.56;20458490;28;20199;-80
2023/07/27 22:51:39;;;;;;;2.50;1.10;;;;;;;17.43;74.76;99421.94;20456001;28;20234;-80
2023/07/27 23:01:42;;;;;;;1.57;1.20;;;;;;;16.86;78.89;99418.72;20483377;28;20205;-80
2023/07/27 23:11:44;;;;;;;2.87;1.50;;;;;;;17.31;77.02;99421.47;20472499;28;20258;-83
2023/07/27 23:21:47;;;;;;;2.13;1.10;;;;;;;17.04;77.70;99429.38;20480233;28;20254;-81
2023/07/27 23:31:50;;;;;;;2.17;1.05;;;;;;;17.06;77.86;99426.97;20492395;28;20270;-80
2023/07/27 23:41:52;;;;;;;1.30;1.17;;;;;;;16.61;78.39;99439.59;20504401;28;20267;-84
2023/07/27 23:51:55;;;;;;;2.50;2.05;;;;;;;17.55;74.09;99444.38;20484206;28;20263;-82
